sensor_id;sensor_type;location;lat;lon;timestamp;P1;durP1;ratioP1;P2;durP2;ratioP2
42194;SDS011;27863;49.440;11.102;2024-02-26T00:00:37;3.70;;;2.60;;
42194;SDS011;27863;49.440;11.102;2024-02-26T00:03:38;4.03;;;3.63;;
42194;SDS011;27863;49.440;11.102;2024-02-26T00:06:42;3.80;;;3.43;;
42194;SDS011;27863;49.440;11.102;2024-02-26T00:09:43;3.10;;;2.80;;
42194;SDS011;27863;49.440;11.102;2024-02-26T00:12:43;3.20;;;2.53;;
42194;SDS011;27863;49.440;11.102;2024-02-26T00:15:44;3.13;;;2.90;;
42194;SDS011;27863;49.440;11.102;2024-02-26T00:18:44;5.13;;;3.13;;
42194;SDS011;27863;49.440;11.102;2024-02-26T00:21:45;3.47;;;3.17;;
42194;SDS011;27863;49.440;11.102;2024-02-26T00:24:46;3.90;;;3.47;;
42194;SDS011;27863;49.440;11.102;2024-02-26T00:27:46;3.37;;;2.97;;
42194;SDS011;27863;49.440;11.102;2024-02-26T00:30:47;3.73;;;2.90;;
42194;SDS011;27863;49.440;11.102;2024-02-26T00:33:47;4.30;;;3.33;;
42194;SDS011;27863;49.440;11.102;2024-02-26T00:36:48;4.27;;;3.57;;
42194;SDS011;27863;49.440;11.102;2024-02-26T00:39:48;4.20;;;3.43;;
42194;SDS011;27863;49.440;11.102;2024-02-26T00:42:49;3.57;;;3.20;;
42194;SDS011;27863;49.440;11.102;2024-02-26T00:45:50;3.90;;;3.40;;
42194;SDS011;27863;49.440;11.102;2024-02-26T00:48:52;3.80;;;3.40;;
42194;SDS011;27863;49.440;11.102;2024-02-26T00:51:52;3.43;;;3.13;;
42194;SDS011;27863;49.440;11.102;2024-02-26T00:54:52;4.07;;;3.13;;
42194;SDS011;27863;49.440;11.102;2024-02-26T00:57:53;4.07;;;3.30;;
42194;SDS011;27863;49.440;11.102;2024-02-26T01:00:54;4.43;;;3.70;;
42194;SDS011;27863;49.440;11.102;2024-02-26T01:03:55;4.67;;;4.10;;
42194;SDS011;27863;49.440;11.102;2024-02-26T01:06:55;4.37;;;3.97;;
42194;SDS011;27863;49.440;11.102;2024-02-26T01:09:56;4.83;;;4.13;;
42194;SDS011;27863;49.440;11.102;2024-02-26T01:12:58;5.13;;;4.37;;
42194;SDS011;27863;49.440;11.102;2024-02-26T01:15:58;4.13;;;3.60;;
42194;SDS011;27863;49.440;11.102;2024-02-26T01:19:00;4.03;;;3.57;;
42194;SDS011;27863;49.440;11.102;2024-02-26T01:22:01;4.47;;;4.03;;
42194;SDS011;27863;49.440;11.102;2024-02-26T01:25:01;4.37;;;3.77;;
42194;SDS011;27863;49.440;11.102;2024-02-26T01:28:02;7.57;;;4.00;;
42194;SDS011;27863;49.440;11.102;2024-02-26T01:31:03;5.17;;;4.17;;
42194;SDS011;27863;49.440;11.102;2024-02-26T01:34:06;5.60;;;4.03;;
42194;SDS011;27863;49.440;11.102;2024-02-26T01:37:07;5.47;;;4.97;;
42194;SDS011;27863;49.440;11.102;2024-02-26T01:40:08;5.60;;;4.87;;
42194;SDS011;27863;49.440;11.102;2024-02-26T01:43:09;5.40;;;4.87;;
42194;SDS011;27863;49.440;11.102;2024-02-26T01:46:12;6.40;;;4.10;;
42194;SDS011;27863;49.440;11.102;2024-02-26T01:49:14;3.80;;;3.50;;
42194;SDS011;27863;49.440;11.102;2024-02-26T01:52:15;4.90;;;3.83;;
42194;SDS011;27863;49.440;11.102;2024-02-26T01:55:19;5.40;;;4.30;;
42194;SDS011;27863;49.440;11.102;2024-02-26T01:58:20;4.60;;;4.20;;
42194;SDS011;27863;49.440;11.102;2024-02-26T02:01:21;5.43;;;4.20;;
42194;SDS011;27863;49.440;11.102;2024-02-26T02:04:22;6.97;;;6.07;;
42194;SDS011;27863;49.440;11.102;2024-02-26T02:07:23;9.10;;;6.90;;
42194;SDS011;27863;49.440;11.102;2024-02-26T02:10:25;7.53;;;6.83;;
42194;SDS011;27863;49.440;11.102;2024-02-26T02:13:27;7.37;;;6.33;;
42194;SDS011;27863;49.440;11.102;2024-02-26T02:16:27;8.17;;;7.27;;
42194;SDS011;27863;49.440;11.102;2024-02-26T02:19:29;8.40;;;7.00;;
42194;SDS011;27863;49.440;11.102;2024-02-26T02:22:29;10.30;;;6.67;;
42194;SDS011;27863;49.440;11.102;2024-02-26T02:25:32;9.40;;;6.97;;
42194;SDS011;27863;49.440;11.102;2024-02-26T02:28:32;8.73;;;7.30;;
42194;SDS011;27863;49.440;11.102;2024-02-26T02:31:33;8.13;;;7.23;;
42194;SDS011;27863;49.440;11.102;2024-02-26T02:34:33;9.43;;;6.53;;
42194;SDS011;27863;49.440;11.102;2024-02-26T02:37:34;8.60;;;7.20;;
42194;SDS011;27863;49.440;11.102;2024-02-26T02:40:34;6.70;;;5.77;;
42194;SDS011;27863;49.440;11.102;2024-02-26T02:43:35;8.60;;;7.57;;
42194;SDS011;27863;49.440;11.102;2024-02-26T02:46:37;9.20;;;6.73;;
42194;SDS011;27863;49.440;11.102;2024-02-26T02:49:42;8.27;;;7.00;;
42194;SDS011;27863;49.440;11.102;2024-02-26T02:52:43;7.17;;;6.43;;
42194;SDS011;27863;49.440;11.102;2024-02-26T02:55:43;7.97;;;6.33;;
42194;SDS011;27863;49.440;11.102;2024-02-26T02:58:44;7.60;;;5.93;;
42194;SDS011;27863;49.440;11.102;2024-02-26T03:01:46;5.87;;;5.13;;
42194;SDS011;27863;49.440;11.102;2024-02-26T03:04:46;7.07;;;6.23;;
42194;SDS011;27863;49.440;11.102;2024-02-26T03:07:49;12.17;;;6.93;;
42194;SDS011;27863;49.440;11.102;2024-02-26T03:10:50;10.87;;;6.47;;
42194;SDS011;27863;49.440;11.102;2024-02-26T03:13:50;6.33;;;5.73;;
42194;SDS011;27863;49.440;11.102;2024-02-26T03:16:54;7.07;;;6.37;;
42194;SDS011;27863;49.440;11.102;2024-02-26T03:19:55;6.70;;;5.10;;
42194;SDS011;27863;49.440;11.102;2024-02-26T03:22:55;8.00;;;6.13;;
42194;SDS011;27863;49.440;11.102;2024-02-26T03:25:56;6.93;;;5.73;;
42194;SDS011;27863;49.440;11.102;2024-02-26T03:28:56;7.20;;;6.07;;
42194;SDS011;27863;49.440;11.102;2024-02-26T03:31:58;7.73;;;6.70;;
42194;SDS011;27863;49.440;11.102;2024-02-26T03:35:01;8.23;;;6.10;;
42194;SDS011;27863;49.440;11.102;2024-02-26T03:38:02;6.40;;;5.80;;
42194;SDS011;27863;49.440;11.102;2024-02-26T03:41:03;6.63;;;6.03;;
42194;SDS011;27863;49.440;11.102;2024-02-26T03:44:03;7.43;;;6.40;;
42194;SDS011;27863;49.440;11.102;2024-02-26T03:47:04;6.90;;;6.20;;
42194;SDS011;27863;49.440;11.102;2024-02-26T03:50:05;6.63;;;5.67;;
42194;SDS011;27863;49.440;11.102;2024-02-26T03:53:06;8.23;;;6.63;;
42194;SDS011;27863;49.440;11.102;2024-02-26T03:56:10;7.80;;;6.83;;
42194;SDS011;27863;49.440;11.102;2024-02-26T03:59:11;8.03;;;6.40;;
42194;SDS011;27863;49.440;11.102;2024-02-26T04:02:12;8.87;;;6.37;;
42194;SDS011;27863;49.440;11.102;2024-02-26T04:05:12;6.70;;;6.10;;
42194;SDS011;27863;49.440;11.102;2024-02-26T04:08:13;6.87;;;6.17;;
42194;SDS011;27863;49.440;11.102;2024-02-26T04:11:14;8.53;;;6.37;;
42194;SDS011;27863;49.440;11.102;2024-02-26T04:14:17;6.57;;;5.93;;
42194;SDS011;27863;49.440;11.102;2024-02-26T04:17:18;7.53;;;5.93;;
42194;SDS011;27863;49.440;11.102;2024-02-26T04:20:20;7.57;;;5.87;;
42194;SDS011;27863;49.440;11.102;2024-02-26T04:23:20;6.30;;;5.70;;
42194;SDS011;27863;49.440;11.102;2024-02-26T04:26:21;8.47;;;5.93;;
42194;SDS011;27863;49.440;11.102;2024-02-26T04:29:21;8.00;;;6.43;;
42194;SDS011;27863;49.440;11.102;2024-02-26T04:32:22;8.97;;;6.30;;
42194;SDS011;27863;49.440;11.102;2024-02-26T04:35:23;8.23;;;7.43;;
42194;SDS011;27863;49.440;11.102;2024-02-26T04:38:24;6.73;;;5.63;;
42194;SDS011;27863;49.440;11.102;2024-02-26T04:41:24;7.87;;;6.53;;
42194;SDS011;27863;49.440;11.102;2024-02-26T04:44:25;8.20;;;6.20;;
42194;SDS011;27863;49.440;11.102;2024-02-26T04:47:26;7.40;;;6.50;;
42194;SDS011;27863;49.440;11.102;2024-02-26T04:50:26;6.40;;;5.63;;
42194;SDS011;27863;49.440;11.102;2024-02-26T04:53:27;6.67;;;6.00;;
42194;SDS011;27863;49.440;11.102;2024-02-26T04:56:30;8.00;;;7.07;;
42194;SDS011;27863;49.440;11.102;2024-02-26T04:59:31;13.43;;;6.00;;
42194;SDS011;27863;49.440;11.102;2024-02-26T05:02:31;7.40;;;6.70;;
42194;SDS011;27863;49.440;11.102;2024-02-26T05:05:33;9.47;;;6.10;;
42194;SDS011;27863;49.440;11.102;2024-02-26T05:08:34;6.13;;;5.50;;
42194;SDS011;27863;49.440;11.102;2024-02-26T05:11:35;5.10;;;4.50;;
42194;SDS011;27863;49.440;11.102;2024-02-26T05:14:36;4.97;;;4.47;;
42194;SDS011;27863;49.440;11.102;2024-02-26T05:17:37;5.30;;;3.83;;
42194;SDS011;27863;49.440;11.102;2024-02-26T05:20:37;4.40;;;4.00;;
42194;SDS011;27863;49.440;11.102;2024-02-26T05:23:38;4.47;;;4.07;;
42194;SDS011;27863;49.440;11.102;2024-02-26T05:26:39;7.87;;;3.70;;
42194;SDS011;27863;49.440;11.102;2024-02-26T05:29:39;7.70;;;4.70;;
42194;SDS011;27863;49.440;11.102;2024-02-26T05:32:39;4.30;;;3.70;;
42194;SDS011;27863;49.440;11.102;2024-02-26T05:35:43;4.53;;;2.80;;
42194;SDS011;27863;49.440;11.102;2024-02-26T05:38:43;4.60;;;3.60;;
42194;SDS011;27863;49.440;11.102;2024-02-26T05:41:46;3.77;;;3.47;;
42194;SDS011;27863;49.440;11.102;2024-02-26T05:44:47;3.93;;;3.63;;
42194;SDS011;27863;49.440;11.102;2024-02-26T05:47:49;3.97;;;3.60;;
42194;SDS011;27863;49.440;11.102;2024-02-26T05:50:50;3.93;;;2.83;;
42194;SDS011;27863;49.440;11.102;2024-02-26T05:53:50;5.13;;;3.50;;
42194;SDS011;27863;49.440;11.102;2024-02-26T05:56:54;4.00;;;3.60;;
42194;SDS011;27863;49.440;11.102;2024-02-26T05:59:54;6.33;;;3.10;;
42194;SDS011;27863;49.440;11.102;2024-02-26T06:02:55;4.70;;;3.17;;
42194;SDS011;27863;49.440;11.102;2024-02-26T06:05:57;3.73;;;3.40;;
42194;SDS011;27863;49.440;11.102;2024-02-26T06:08:57;3.77;;;3.07;;
42194;SDS011;27863;49.440;11.102;2024-02-26T06:12:00;3.00;;;2.70;;
42194;SDS011;27863;49.440;11.102;2024-02-26T06:15:01;3.17;;;2.87;;
42194;SDS011;27863;49.440;11.102;2024-02-26T06:18:01;7.13;;;3.77;;
42194;SDS011;27863;49.440;11.102;2024-02-26T06:21:02;4.03;;;3.20;;
42194;SDS011;27863;49.440;11.102;2024-02-26T06:24:03;6.23;;;3.07;;
42194;SDS011;27863;49.440;11.102;2024-02-26T06:27:04;3.37;;;3.07;;
42194;SDS011;27863;49.440;11.102;2024-02-26T06:30:06;2.63;;;2.43;;
42194;SDS011;27863;49.440;11.102;2024-02-26T06:33:08;7.73;;;3.37;;
42194;SDS011;27863;49.440;11.102;2024-02-26T06:36:09;4.13;;;3.73;;
42194;SDS011;27863;49.440;11.102;2024-02-26T06:39:10;3.40;;;2.80;;
42194;SDS011;27863;49.440;11.102;2024-02-26T06:42:11;2.93;;;2.60;;
42194;SDS011;27863;49.440;11.102;2024-02-26T06:45:12;3.17;;;2.43;;
42194;SDS011;27863;49.440;11.102;2024-02-26T06:48:13;2.87;;;2.60;;
42194;SDS011;27863;49.440;11.102;2024-02-26T06:51:17;3.20;;;2.40;;
42194;SDS011;27863;49.440;11.102;2024-02-26T06:54:20;4.53;;;2.83;;
42194;SDS011;27863;49.440;11.102;2024-02-26T06:57:21;3.13;;;2.30;;
42194;SDS011;27863;49.440;11.102;2024-02-26T07:00:24;3.63;;;3.00;;
42194;SDS011;27863;49.440;11.102;2024-02-26T07:03:25;8.13;;;3.03;;
42194;SDS011;27863;49.440;11.102;2024-02-26T07:06:29;3.73;;;2.50;;
42194;SDS011;27863;49.440;11.102;2024-02-26T07:09:30;2.70;;;2.50;;
42194;SDS011;27863;49.440;11.102;2024-02-26T07:12:31;3.63;;;2.43;;
42194;SDS011;27863;49.440;11.102;2024-02-26T07:15:32;3.57;;;2.50;;
42194;SDS011;27863;49.440;11.102;2024-02-26T07:18:33;5.50;;;2.67;;
42194;SDS011;27863;49.440;11.102;2024-02-26T07:21:33;3.27;;;2.70;;
42194;SDS011;27863;49.440;11.102;2024-02-26T07:24:34;5.37;;;2.50;;
42194;SDS011;27863;49.440;11.102;2024-02-26T07:27:34;3.37;;;2.60;;
42194;SDS011;27863;49.440;11.102;2024-02-26T07:30:35;2.80;;;2.37;;
42194;SDS011;27863;49.440;11.102;2024-02-26T07:33:36;3.77;;;3.23;;
42194;SDS011;27863;49.440;11.102;2024-02-26T07:36:37;3.37;;;2.80;;
42194;SDS011;27863;49.440;11.102;2024-02-26T07:39:39;5.60;;;3.00;;
42194;SDS011;27863;49.440;11.102;2024-02-26T07:42:39;14.30;;;3.87;;
42194;SDS011;27863;49.440;11.102;2024-02-26T07:45:40;9.07;;;3.10;;
42194;SDS011;27863;49.440;11.102;2024-02-26T07:48:41;5.17;;;3.00;;
42194;SDS011;27863;49.440;11.102;2024-02-26T07:51:42;6.10;;;3.10;;
42194;SDS011;27863;49.440;11.102;2024-02-26T07:54:43;2.83;;;2.10;;
42194;SDS011;27863;49.440;11.102;2024-02-26T07:57:44;2.67;;;2.27;;
42194;SDS011;27863;49.440;11.102;2024-02-26T08:00:45;2.83;;;2.47;;
42194;SDS011;27863;49.440;11.102;2024-02-26T08:03:46;2.10;;;1.90;;
42194;SDS011;27863;49.440;11.102;2024-02-26T08:06:48;3.83;;;2.43;;
42194;SDS011;27863;49.440;11.102;2024-02-26T08:09:48;3.87;;;2.80;;
42194;SDS011;27863;49.440;11.102;2024-02-26T08:12:49;4.17;;;3.10;;
42194;SDS011;27863;49.440;11.102;2024-02-26T08:15:50;3.77;;;2.60;;
42194;SDS011;27863;49.440;11.102;2024-02-26T08:18:50;3.43;;;2.50;;
42194;SDS011;27863;49.440;11.102;2024-02-26T08:25:16;3.10;;;2.30;;
42194;SDS011;27863;49.440;11.102;2024-02-26T08:28:18;2.40;;;2.20;;
42194;SDS011;27863;49.440;11.102;2024-02-26T08:31:18;2.30;;;1.93;;
42194;SDS011;27863;49.440;11.102;2024-02-26T08:34:19;2.17;;;1.97;;
42194;SDS011;27863;49.440;11.102;2024-02-26T08:37:19;2.40;;;2.20;;
42194;SDS011;27863;49.440;11.102;2024-02-26T08:40:20;2.30;;;2.10;;
42194;SDS011;27863;49.440;11.102;2024-02-26T08:43:20;2.50;;;1.93;;
42194;SDS011;27863;49.440;11.102;2024-02-26T08:46:21;1.97;;;1.77;;
42194;SDS011;27863;49.440;11.102;2024-02-26T08:49:23;3.37;;;2.37;;
42194;SDS011;27863;49.440;11.102;2024-02-26T08:52:24;2.20;;;2.00;;
42194;SDS011;27863;49.440;11.102;2024-02-26T08:55:24;2.13;;;1.80;;
42194;SDS011;27863;49.440;11.102;2024-02-26T08:58:26;2.83;;;2.10;;
42194;SDS011;27863;49.440;11.102;2024-02-26T09:01:27;2.60;;;2.20;;
42194;SDS011;27863;49.440;11.102;2024-02-26T09:04:29;4.00;;;2.50;;
42194;SDS011;27863;49.440;11.102;2024-02-26T09:07:29;1.87;;;1.77;;
42194;SDS011;27863;49.440;11.102;2024-02-26T09:10:30;2.17;;;1.97;;
42194;SDS011;27863;49.440;11.102;2024-02-26T09:13:30;2.97;;;2.67;;
42194;SDS011;27863;49.440;11.102;2024-02-26T09:16:31;3.17;;;1.97;;
42194;SDS011;27863;49.440;11.102;2024-02-26T09:19:33;1.90;;;1.43;;
42194;SDS011;27863;49.440;11.102;2024-02-26T09:22:33;3.30;;;1.87;;
42194;SDS011;27863;49.440;11.102;2024-02-26T09:25:35;9.33;;;2.20;;
42194;SDS011;27863;49.440;11.102;2024-02-26T09:28:35;2.00;;;1.90;;
42194;SDS011;27863;49.440;11.102;2024-02-26T09:31:37;2.80;;;2.07;;
42194;SDS011;27863;49.440;11.102;2024-02-26T09:34:40;3.53;;;2.47;;
42194;SDS011;27863;49.440;11.102;2024-02-26T09:37:41;3.47;;;1.70;;
42194;SDS011;27863;49.440;11.102;2024-02-26T09:40:43;1.40;;;1.30;;
42194;SDS011;27863;49.440;11.102;2024-02-26T09:43:45;1.97;;;1.73;;
42194;SDS011;27863;49.440;11.102;2024-02-26T09:46:48;1.30;;;1.20;;
42194;SDS011;27863;49.440;11.102;2024-02-26T09:49:51;5.80;;;1.50;;
42194;SDS011;27863;49.440;11.102;2024-02-26T09:52:53;1.97;;;1.60;;
42194;SDS011;27863;49.440;11.102;2024-02-26T09:55:54;1.50;;;1.30;;
42194;SDS011;27863;49.440;11.102;2024-02-26T09:58:54;2.57;;;2.03;;
42194;SDS011;27863;49.440;11.102;2024-02-26T10:01:56;2.40;;;1.80;;
42194;SDS011;27863;49.440;11.102;2024-02-26T10:04:59;3.63;;;3.33;;
42194;SDS011;27863;49.440;11.102;2024-02-26T10:08:05;2.87;;;2.53;;
42194;SDS011;27863;49.440;11.102;2024-02-26T10:11:07;1.60;;;1.50;;
42194;SDS011;27863;49.440;11.102;2024-02-26T10:14:08;1.73;;;1.40;;
42194;SDS011;27863;49.440;11.102;2024-02-26T10:17:11;1.47;;;1.33;;
42194;SDS011;27863;49.440;11.102;2024-02-26T10:20:17;1.83;;;1.73;;
42194;SDS011;27863;49.440;11.102;2024-02-26T10:23:18;2.00;;;1.80;;
42194;SDS011;27863;49.440;11.102;2024-02-26T10:26:19;1.77;;;1.40;;
42194;SDS011;27863;49.440;11.102;2024-02-26T10:29:19;1.97;;;1.70;;
42194;SDS011;27863;49.440;11.102;2024-02-26T10:32:21;1.87;;;1.33;;
42194;SDS011;27863;49.440;11.102;2024-02-26T10:35:21;2.70;;;1.50;;
42194;SDS011;27863;49.440;11.102;2024-02-26T10:38:22;3.60;;;1.50;;
42194;SDS011;27863;49.440;11.102;2024-02-26T10:41:23;1.50;;;1.20;;
42194;SDS011;27863;49.440;11.102;2024-02-26T10:44:25;2.00;;;1.77;;
42194;SDS011;27863;49.440;11.102;2024-02-26T10:47:26;2.17;;;1.60;;
42194;SDS011;27863;49.440;11.102;2024-02-26T10:50:27;2.40;;;1.37;;
42194;SDS011;27863;49.440;11.102;2024-02-26T10:53:28;1.73;;;1.63;;
42194;SDS011;27863;49.440;11.102;2024-02-26T10:56:32;2.27;;;1.57;;
42194;SDS011;27863;49.440;11.102;2024-02-26T10:59:34;2.27;;;2.00;;
42194;SDS011;27863;49.440;11.102;2024-02-26T11:02:35;1.50;;;1.40;;
42194;SDS011;27863;49.440;11.102;2024-02-26T11:05:36;2.47;;;1.80;;
42194;SDS011;27863;49.440;11.102;2024-02-26T11:08:37;2.55;;;2.00;;
42194;SDS011;27863;49.440;11.102;2024-02-26T11:11:38;2.53;;;1.92;;
42194;SDS011;27863;49.440;11.102;2024-02-26T11:14:40;3.00;;;1.73;;
42194;SDS011;27863;49.440;11.102;2024-02-26T11:17:43;1.58;;;1.48;;
42194;SDS011;27863;49.440;11.102;2024-02-26T11:20:44;1.70;;;1.60;;
42194;SDS011;27863;49.440;11.102;2024-02-26T11:23:46;2.42;;;1.45;;
42194;SDS011;27863;49.440;11.102;2024-02-26T11:26:52;2.10;;;1.83;;
42194;SDS011;27863;49.440;11.102;2024-02-26T11:30:01;1.77;;;1.55;;
42194;SDS011;27863;49.440;11.102;2024-02-26T11:33:08;1.73;;;1.33;;
42194;SDS011;27863;49.440;11.102;2024-02-26T11:36:10;1.73;;;1.50;;
42194;SDS011;27863;49.440;11.102;2024-02-26T11:39:14;1.52;;;1.42;;
42194;SDS011;27863;49.440;11.102;2024-02-26T11:42:16;1.90;;;1.50;;
42194;SDS011;27863;49.440;11.102;2024-02-26T11:48:39;1.83;;;1.48;;
42194;SDS011;27863;49.440;11.102;2024-02-26T11:51:39;2.28;;;1.80;;
42194;SDS011;27863;49.440;11.102;2024-02-26T11:54:51;1.60;;;1.20;;
42194;SDS011;27863;49.440;11.102;2024-02-26T11:57:53;1.45;;;1.20;;
42194;SDS011;27863;49.440;11.102;2024-02-26T12:00:55;1.52;;;1.42;;
42194;SDS011;27863;49.440;11.102;2024-02-26T12:03:58;2.85;;;1.60;;
42194;SDS011;27863;49.440;11.102;2024-02-26T12:07:00;2.58;;;1.38;;
42194;SDS011;27863;49.440;11.102;2024-02-26T12:13:29;3.03;;;1.48;;
42194;SDS011;27863;49.440;11.102;2024-02-26T12:16:40;1.52;;;1.40;;
42194;SDS011;27863;49.440;11.102;2024-02-26T12:19:42;1.92;;;1.42;;
42194;SDS011;27863;49.440;11.102;2024-02-26T12:22:44;2.70;;;1.45;;
42194;SDS011;27863;49.440;11.102;2024-02-26T12:25:46;2.80;;;1.90;;
42194;SDS011;27863;49.440;11.102;2024-02-26T12:28:48;1.70;;;1.60;;
42194;SDS011;27863;49.440;11.102;2024-02-26T12:31:50;3.47;;;1.20;;
42194;SDS011;27863;49.440;11.102;2024-02-26T12:34:50;1.42;;;1.30;;
42194;SDS011;27863;49.440;11.102;2024-02-26T12:37:52;1.67;;;1.20;;
42194;SDS011;27863;49.440;11.102;2024-02-26T12:40:54;3.63;;;1.37;;
42194;SDS011;27863;49.440;11.102;2024-02-26T12:43:54;2.10;;;1.03;;
42194;SDS011;27863;49.440;11.102;2024-02-26T12:47:02;1.17;;;1.07;;
42194;SDS011;27863;49.440;11.102;2024-02-26T12:50:04;1.80;;;1.47;;
42194;SDS011;27863;49.440;11.102;2024-02-26T12:53:05;1.37;;;0.90;;
42194;SDS011;27863;49.440;11.102;2024-02-26T12:56:07;4.47;;;0.90;;
42194;SDS011;27863;49.440;11.102;2024-02-26T12:59:08;2.67;;;1.10;;
42194;SDS011;27863;49.440;11.102;2024-02-26T13:02:08;2.13;;;1.00;;
42194;SDS011;27863;49.440;11.102;2024-02-26T13:05:09;0.88;;;0.88;;
42194;SDS011;27863;49.440;11.102;2024-02-26T13:08:17;1.00;;;0.83;;
42194;SDS011;27863;49.440;11.102;2024-02-26T13:11:18;0.80;;;0.80;;
42194;SDS011;27863;49.440;11.102;2024-02-26T13:14:19;1.65;;;1.00;;
42194;SDS011;27863;49.440;11.102;2024-02-26T13:17:23;3.13;;;0.90;;
42194;SDS011;27863;49.440;11.102;2024-02-26T13:20:26;2.00;;;1.13;;
42194;SDS011;27863;49.440;11.102;2024-02-26T13:23:27;1.10;;;0.97;;
42194;SDS011;27863;49.440;11.102;2024-02-26T13:26:28;0.90;;;0.77;;
42194;SDS011;27863;49.440;11.102;2024-02-26T13:29:28;4.50;;;0.80;;
42194;SDS011;27863;49.440;11.102;2024-02-26T13:32:30;0.90;;;0.90;;
42194;SDS011;27863;49.440;11.102;2024-02-26T13:35:32;1.33;;;0.70;;
42194;SDS011;27863;49.440;11.102;2024-02-26T13:38:35;0.65;;;0.63;;
42194;SDS011;27863;49.440;11.102;2024-02-26T13:41:35;0.60;;;0.60;;
42194;SDS011;27863;49.440;11.102;2024-02-26T13:44:36;1.03;;;0.57;;
42194;SDS011;27863;49.440;11.102;2024-02-26T13:47:39;1.17;;;0.80;;
42194;SDS011;27863;49.440;11.102;2024-02-26T13:50:44;0.80;;;0.70;;
42194;SDS011;27863;49.440;11.102;2024-02-26T13:53:49;0.88;;;0.70;;
42194;SDS011;27863;49.440;11.102;2024-02-26T13:56:51;1.80;;;1.10;;
42194;SDS011;27863;49.440;11.102;2024-02-26T13:59:53;0.70;;;0.70;;
42194;SDS011;27863;49.440;11.102;2024-02-26T14:02:54;1.40;;;0.83;;
42194;SDS011;27863;49.440;11.102;2024-02-26T14:05:55;2.03;;;1.00;;
42194;SDS011;27863;49.440;11.102;2024-02-26T14:08:57;1.00;;;0.90;;
42194;SDS011;27863;49.440;11.102;2024-02-26T14:11:58;0.68;;;0.68;;
42194;SDS011;27863;49.440;11.102;2024-02-26T14:15:00;1.20;;;1.10;;
42194;SDS011;27863;49.440;11.102;2024-02-26T14:18:05;1.85;;;1.00;;
42194;SDS011;27863;49.440;11.102;2024-02-26T14:21:05;0.70;;;0.70;;
42194;SDS011;27863;49.440;11.102;2024-02-26T14:24:06;1.13;;;1.00;;
42194;SDS011;27863;49.440;11.102;2024-02-26T14:27:10;2.58;;;1.10;;
42194;SDS011;27863;49.440;11.102;2024-02-26T14:30:17;19.00;;;4.32;;
42194;SDS011;27863;49.440;11.102;2024-02-26T14:33:22;3.42;;;1.50;;
42194;SDS011;27863;49.440;11.102;2024-02-26T14:36:23;0.70;;;0.70;;
42194;SDS011;27863;49.440;11.102;2024-02-26T14:39:23;1.70;;;0.93;;
42194;SDS011;27863;49.440;11.102;2024-02-26T14:42:24;1.50;;;1.13;;
42194;SDS011;27863;49.440;11.102;2024-02-26T14:45:25;0.95;;;0.80;;
42194;SDS011;27863;49.440;11.102;2024-02-26T14:48:25;1.60;;;0.95;;
42194;SDS011;27863;49.440;11.102;2024-02-26T14:51:27;1.38;;;0.90;;
42194;SDS011;27863;49.440;11.102;2024-02-26T14:54:28;0.70;;;0.70;;
42194;SDS011;27863;49.440;11.102;2024-02-26T14:57:32;1.92;;;1.42;;
42194;SDS011;27863;49.440;11.102;2024-02-26T15:00:33;6.18;;;2.17;;
42194;SDS011;27863;49.440;11.102;2024-02-26T15:03:35;2.33;;;1.83;;
42194;SDS011;27863;49.440;11.102;2024-02-26T15:06:37;2.40;;;2.07;;
42194;SDS011;27863;49.440;11.102;2024-02-26T15:09:38;3.40;;;1.97;;
42194;SDS011;27863;49.440;11.102;2024-02-26T15:12:40;2.97;;;2.00;;
42194;SDS011;27863;49.440;11.102;2024-02-26T15:15:40;2.27;;;1.77;;
42194;SDS011;27863;49.440;11.102;2024-02-26T15:18:41;2.90;;;1.80;;
42194;SDS011;27863;49.440;11.102;2024-02-26T15:21:46;2.20;;;2.00;;
42194;SDS011;27863;49.440;11.102;2024-02-26T15:24:56;2.30;;;2.10;;
42194;SDS011;27863;49.440;11.102;2024-02-26T15:27:57;3.00;;;2.07;;
42194;SDS011;27863;49.440;11.102;2024-02-26T15:30:58;6.30;;;2.63;;
42194;SDS011;27863;49.440;11.102;2024-02-26T15:33:58;2.53;;;1.83;;
42194;SDS011;27863;49.440;11.102;2024-02-26T15:36:59;5.23;;;2.03;;
42194;SDS011;27863;49.440;11.102;2024-02-26T15:39:59;3.23;;;1.53;;
42194;SDS011;27863;49.440;11.102;2024-02-26T15:43:00;2.00;;;1.60;;
42194;SDS011;27863;49.440;11.102;2024-02-26T15:46:00;2.13;;;1.83;;
42194;SDS011;27863;49.440;11.102;2024-02-26T15:49:01;1.83;;;1.70;;
42194;SDS011;27863;49.440;11.102;2024-02-26T15:52:02;1.93;;;1.80;;
42194;SDS011;27863;49.440;11.102;2024-02-26T15:55:07;2.03;;;1.87;;
42194;SDS011;27863;49.440;11.102;2024-02-26T15:58:08;2.57;;;1.77;;
42194;SDS011;27863;49.440;11.102;2024-02-26T16:01:09;2.00;;;1.80;;
42194;SDS011;27863;49.440;11.102;2024-02-26T16:04:10;2.03;;;1.87;;
42194;SDS011;27863;49.440;11.102;2024-02-26T16:07:17;2.10;;;1.90;;
42194;SDS011;27863;49.440;11.102;2024-02-26T16:10:21;2.50;;;2.20;;
42194;SDS011;27863;49.440;11.102;2024-02-26T16:13:21;2.17;;;1.97;;
42194;SDS011;27863;49.440;11.102;2024-02-26T16:16:22;3.77;;;2.23;;
42194;SDS011;27863;49.440;11.102;2024-02-26T16:19:25;2.80;;;2.60;;
42194;SDS011;27863;49.440;11.102;2024-02-26T16:22:29;3.80;;;2.40;;
42194;SDS011;27863;49.440;11.102;2024-02-26T16:25:32;4.30;;;2.20;;
42194;SDS011;27863;49.440;11.102;2024-02-26T16:28:32;3.03;;;2.73;;
42194;SDS011;27863;49.440;11.102;2024-02-26T16:31:33;2.83;;;2.47;;
42194;SDS011;27863;49.440;11.102;2024-02-26T16:34:34;2.10;;;1.90;;
42194;SDS011;27863;49.440;11.102;2024-02-26T16:37:36;2.70;;;2.10;;
42194;SDS011;27863;49.440;11.102;2024-02-26T16:40:36;2.93;;;2.73;;
42194;SDS011;27863;49.440;11.102;2024-02-26T16:43:40;3.43;;;2.97;;
42194;SDS011;27863;49.440;11.102;2024-02-26T16:46:40;3.17;;;2.87;;
42194;SDS011;27863;49.440;11.102;2024-02-26T16:49:41;2.97;;;2.60;;
42194;SDS011;27863;49.440;11.102;2024-02-26T16:52:43;3.63;;;2.13;;
42194;SDS011;27863;49.440;11.102;2024-02-26T16:55:46;4.22;;;3.50;;
42194;SDS011;27863;49.440;11.102;2024-02-26T16:58:47;2.80;;;2.37;;
42194;SDS011;27863;49.440;11.102;2024-02-26T17:01:48;2.50;;;2.30;;
42194;SDS011;27863;49.440;11.102;2024-02-26T17:04:49;3.77;;;3.40;;
42194;SDS011;27863;49.440;11.102;2024-02-26T17:07:50;3.10;;;2.80;;
42194;SDS011;27863;49.440;11.102;2024-02-26T17:10:51;3.63;;;3.33;;
42194;SDS011;27863;49.440;11.102;2024-02-26T17:13:51;2.80;;;2.53;;
42194;SDS011;27863;49.440;11.102;2024-02-26T17:16:52;4.37;;;3.27;;
42194;SDS011;27863;49.440;11.102;2024-02-26T17:19:53;4.87;;;2.37;;
42194;SDS011;27863;49.440;11.102;2024-02-26T17:22:54;4.93;;;2.70;;
42194;SDS011;27863;49.440;11.102;2024-02-26T17:25:55;4.00;;;2.90;;
42194;SDS011;27863;49.440;11.102;2024-02-26T17:28:56;3.70;;;3.40;;
42194;SDS011;27863;49.440;11.102;2024-02-26T17:31:59;3.47;;;2.97;;
42194;SDS011;27863;49.440;11.102;2024-02-26T17:35:01;4.53;;;3.80;;
42194;SDS011;27863;49.440;11.102;2024-02-26T17:38:04;3.80;;;3.30;;
42194;SDS011;27863;49.440;11.102;2024-02-26T17:41:07;4.50;;;3.50;;
42194;SDS011;27863;49.440;11.102;2024-02-26T17:44:10;4.47;;;3.57;;
42194;SDS011;27863;49.440;11.102;2024-02-26T17:47:11;3.87;;;3.50;;
42194;SDS011;27863;49.440;11.102;2024-02-26T17:50:12;5.20;;;4.63;;
42194;SDS011;27863;49.440;11.102;2024-02-26T17:53:13;5.07;;;3.70;;
42194;SDS011;27863;49.440;11.102;2024-02-26T17:56:14;3.90;;;3.50;;
42194;SDS011;27863;49.440;11.102;2024-02-26T17:59:15;4.40;;;4.00;;
42194;SDS011;27863;49.440;11.102;2024-02-26T18:02:16;4.47;;;4.07;;
42194;SDS011;27863;49.440;11.102;2024-02-26T18:05:17;3.93;;;3.63;;